sensor_id;sensor_type;location;lat;lon;timestamp;pressure;altitude;pressure_sealevel;temperature;humidity
39301;BME280;25019;42.626;23.380;2023-05-21T00:00:51;94314.56;;;12.67;100.00
39301;BME280;25019;42.626;23.380;2023-05-21T00:03:18;94307.91;;;12.65;100.00
39301;BME280;25019;42.626;23.380;2023-05-21T00:05:43;94213.72;;;11.97;100.00
39301;BME280;25019;42.626;23.380;2023-05-21T00:08:11;94302.84;;;12.63;100.00
39301;BME280;25019;42.626;23.380;2023-05-21T00:10:37;94300.69;;;12.60;100.00
39301;BME280;25019;42.626;23.380;2023-05-21T00:13:02;94312.41;;;12.59;100.00
39301;BME280;25019;42.626;23.380;2023-05-21T00:15:28;94311.31;;;12.55;100.00
39301;BME280;25019;42.626;23.380;2023-05-21T00:17:54;94292.69;;;12.44;100.00
39301;BME280;25019;42.626;23.380;2023-05-21T00:20:20;94292.13;;;12.37;100.00
39301;BME280;25019;42.626;23.380;2023-05-21T00:22:46;94303.03;;;12.41;100.00
39301;BME280;25019;42.626;23.380;2023-05-21T00:25:12;94295.84;;;12.41;100.00
39301;BME280;25019;42.626;23.380;2023-05-21T00:27:38;94289.19;;;12.39;100.00
39301;BME280;25019;42.626;23.380;2023-05-21T00:30:05;94292.13;;;12.42;100.00
39301;BME280;25019;42.626;23.380;2023-05-21T00:32:30;94233.38;;;11.96;100.00
39301;BME280;25019;42.626;23.380;2023-05-21T00:34:56;94291.31;;;12.37;100.00
39301;BME280;25019;42.626;23.380;2023-05-21T00:37:22;94287.81;;;12.31;100.00
39301;BME280;25019;42.626;23.380;2023-05-21T00:39:49;94292.34;;;12.25;100.00
39301;BME280;25019;42.626;23.380;2023-05-21T00:42:15;94292.59;;;12.19;100.00
39301;BME280;25019;42.626;23.380;2023-05-21T00:44:43;94276.31;;;12.10;100.00
39301;BME280;25019;42.626;23.380;2023-05-21T00:47:11;94252.53;;;11.93;100.00
39301;BME280;25019;42.626;23.380;2023-05-21T00:49:38;94272.81;;;12.04;100.00
39301;BME280;25019;42.626;23.380;2023-05-21T00:52:04;94262.97;;;11.99;100.00
39301;BME280;25019;42.626;23.380;2023-05-21T00:54:31;94286.97;;;12.10;100.00
39301;BME280;25019;42.626;23.380;2023-05-21T00:56:57;94234.13;;;11.86;100.00
39301;BME280;25019;42.626;23.380;2023-05-21T00:59:23;94288.06;;;12.24;100.00
39301;BME280;25019;42.626;23.380;2023-05-21T01:01:49;94284.63;;;12.29;100.00
39301;BME280;25019;42.626;23.380;2023-05-21T01:04:23;94278.25;;;12.30;100.00
39301;BME280;25019;42.626;23.380;2023-05-21T01:06:49;94259.81;;;12.18;100.00
39301;BME280;25019;42.626;23.380;2023-05-21T01:09:14;94263.63;;;12.33;100.00
39301;BME280;25019;42.626;23.380;2023-05-21T01:11:43;94274.28;;;12.43;100.00
39301;BME280;25019;42.626;23.380;2023-05-21T01:14:11;94262.84;;;12.42;100.00
39301;BME280;25019;42.626;23.380;2023-05-21T01:16:38;94266.59;;;12.47;100.00
39301;BME280;25019;42.626;23.380;2023-05-21T01:19:06;94258.28;;;12.43;100.00
39301;BME280;25019;42.626;23.380;2023-05-21T01:21:36;94267.66;;;12.51;100.00
39301;BME280;25019;42.626;23.380;2023-05-21T01:24:05;94256.44;;;12.38;100.00
39301;BME280;25019;42.626;23.380;2023-05-21T01:26:32;94267.13;;;12.54;100.00
39301;BME280;25019;42.626;23.380;2023-05-21T01:29:05;94275.13;;;12.59;100.00
39301;BME280;25019;42.626;23.380;2023-05-21T01:34:10;94219.41;;;12.32;100.00
39301;BME280;25019;42.626;23.380;2023-05-21T01:36:42;94265.28;;;12.59;100.00
39301;BME280;25019;42.626;23.380;2023-05-21T01:39:22;94265.53;;;12.63;100.00
39301;BME280;25019;42.626;23.380;2023-05-21T01:41:51;94237.53;;;12.50;100.00
39301;BME280;25019;42.626;23.380;2023-05-21T01:44:18;94170.91;;;12.04;100.00
39301;BME280;25019;42.626;23.380;2023-05-21T01:46:44;94261.28;;;12.62;100.00
39301;BME280;25019;42.626;23.380;2023-05-21T01:49:10;94261.53;;;12.61;100.00
39301;BME280;25019;42.626;23.380;2023-05-21T01:51:36;94217.78;;;12.25;100.00
39301;BME280;25019;42.626;23.380;2023-05-21T01:54:02;94211.13;;;12.23;100.00
39301;BME280;25019;42.626;23.380;2023-05-21T01:56:28;94272.44;;;12.59;100.00
39301;BME280;25019;42.626;23.380;2023-05-21T01:58:56;94262.59;;;12.59;100.00
39301;BME280;25019;42.626;23.380;2023-05-21T02:01:24;94246.34;;;12.46;100.00
39301;BME280;25019;42.626;23.380;2023-05-21T02:03:51;94259.66;;;12.56;100.00
39301;BME280;25019;42.626;23.380;2023-05-21T02:06:16;94204.72;;;12.13;100.00
39301;BME280;25019;42.626;23.380;2023-05-21T02:08:42;94258.03;;;12.39;100.00
39301;BME280;25019;42.626;23.380;2023-05-21T02:11:09;94257.75;;;12.31;100.00
39301;BME280;25019;42.626;23.380;2023-05-21T02:13:35;94240.13;;;12.14;100.00
39301;BME280;25019;42.626;23.380;2023-05-21T02:16:06;94253.72;;;12.18;100.00
39301;BME280;25019;42.626;23.380;2023-05-21T02:18:37;94249.97;;;12.13;100.00
39301;BME280;25019;42.626;23.380;2023-05-21T02:21:03;94245.69;;;12.07;100.00
39301;BME280;25019;42.626;23.380;2023-05-21T02:23:28;94191.50;;;11.71;100.00
39301;BME280;25019;42.626;23.380;2023-05-21T02:25:54;94253.44;;;12.09;100.00
39301;BME280;25019;42.626;23.380;2023-05-21T02:28:21;94249.72;;;12.10;100.00
39301;BME280;25019;42.626;23.380;2023-05-21T02:30:48;94232.13;;;12.04;100.00
39301;BME280;25019;42.626;23.380;2023-05-21T02:33:15;94231.84;;;12.05;100.00
39301;BME280;25019;42.626;23.380;2023-05-21T02:35:40;94235.84;;;12.08;100.00
39301;BME280;25019;42.626;23.380;2023-05-21T02:38:06;94248.09;;;12.14;100.00
39301;BME280;25019;42.626;23.380;2023-05-21T02:40:33;94146.25;;;11.55;100.00
39301;BME280;25019;42.626;23.380;2023-05-21T02:42:59;94221.16;;;12.00;100.00
39301;BME280;25019;42.626;23.380;2023-05-21T02:45:24;94251.56;;;12.14;100.00
39301;BME280;25019;42.626;23.380;2023-05-21T02:47:51;94232.91;;;12.09;100.00
39301;BME280;25019;42.626;23.380;2023-05-21T02:50:18;94244.66;;;12.19;100.00
39301;BME280;25019;42.626;23.380;2023-05-21T02:52:49;94236.72;;;12.24;100.00
39301;BME280;25019;42.626;23.380;2023-05-21T02:55:16;94246.56;;;12.28;100.00
39301;BME280;25019;42.626;23.380;2023-05-21T02:57:42;94246.53;;;12.23;100.00
39301;BME280;25019;42.626;23.380;2023-05-21T03:00:08;94239.63;;;12.27;100.00
39301;BME280;25019;42.626;23.380;2023-05-21T03:02:35;94226.03;;;12.19;100.00
39301;BME280;25019;42.626;23.380;2023-05-21T03:05:00;94239.09;;;12.31;100.00
39301;BME280;25019;42.626;23.380;2023-05-21T03:07:27;94156.44;;;11.79;100.00
39301;BME280;25019;42.626;23.380;2023-05-21T03:09:52;94215.66;;;12.12;100.00
39301;BME280;25019;42.626;23.380;2023-05-21T03:12:18;94226.81;;;12.14;100.00
39301;BME280;25019;42.626;23.380;2023-05-21T03:14:44;94209.22;;;12.13;100.00
39301;BME280;25019;42.626;23.380;2023-05-21T03:17:12;94187.38;;;12.01;100.00
39301;BME280;25019;42.626;23.380;2023-05-21T03:19:41;94246.03;;;12.42;100.00
39301;BME280;25019;42.626;23.380;2023-05-21T03:22:07;94247.13;;;12.46;100.00
39301;BME280;25019;42.626;23.380;2023-05-21T03:24:36;94243.66;;;12.46;100.00
39301;BME280;25019;42.626;23.380;2023-05-21T03:27:02;94197.25;;;12.10;100.00
39301;BME280;25019;42.626;23.380;2023-05-21T03:29:31;94186.31;;;12.02;100.00
39301;BME280;25019;42.626;23.380;2023-05-21T03:31:57;94234.59;;;12.36;100.00
39301;BME280;25019;42.626;23.380;2023-05-21T03:34:22;94244.44;;;12.41;100.00
39301;BME280;25019;42.626;23.380;2023-05-21T03:36:49;94126.88;;;11.70;100.00
39301;BME280;25019;42.626;23.380;2023-05-21T03:39:17;94143.41;;;11.82;100.00
39301;BME280;25019;42.626;23.380;2023-05-21T03:41:43;94224.50;;;12.43;100.00
39301;BME280;25019;42.626;23.380;2023-05-21T03:44:14;94234.09;;;12.44;100.00
39301;BME280;25019;42.626;23.380;2023-05-21T03:46:57;94246.88;;;12.63;100.00
39301;BME280;25019;42.626;23.380;2023-05-21T03:49:29;94219.97;;;12.49;100.00
39301;BME280;25019;42.626;23.380;2023-05-21T03:51:56;94190.91;;;12.32;100.00
39301;BME280;25019;42.626;23.380;2023-05-21T03:54:22;94241.56;;;12.73;100.00
39301;BME280;25019;42.626;23.380;2023-05-21T03:56:51;94244.50;;;12.82;100.00
39301;BME280;25019;42.626;23.380;2023-05-21T03:59:16;94252.75;;;12.86;100.00
39301;BME280;25019;42.626;23.380;2023-05-21T04:01:43;94238.63;;;12.75;100.00
39301;BME280;25019;42.626;23.380;2023-05-21T04:04:12;94237.03;;;12.79;100.00
39301;BME280;25019;42.626;23.380;2023-05-21T04:06:38;94175.47;;;12.39;100.00
39301;BME280;25019;42.626;23.380;2023-05-21T04:09:06;94189.34;;;12.52;100.00
39301;BME280;25019;42.626;23.380;2023-05-21T04:11:32;94228.00;;;12.85;100.00
39301;BME280;25019;42.626;23.380;2023-05-21T04:13:58;94226.66;;;12.93;100.00
39301;BME280;25019;42.626;23.380;2023-05-21T04:16:23;94254.38;;;13.18;100.00
39301;BME280;25019;42.626;23.380;2023-05-21T04:18:49;94259.41;;;13.25;100.00
39301;BME280;25019;42.626;23.380;2023-05-21T04:21:15;94243.69;;;13.23;100.00
39301;BME280;25019;42.626;23.380;2023-05-21T04:23:42;94177.88;;;12.87;100.00
39301;BME280;25019;42.626;23.380;2023-05-21T04:26:23;94248.25;;;13.43;100.00
39301;BME280;25019;42.626;23.380;2023-05-21T04:28:49;94188.00;;;13.16;100.00
39301;BME280;25019;42.626;23.380;2023-05-21T04:31:15;94234.88;;;13.54;100.00
39301;BME280;25019;42.626;23.380;2023-05-21T04:33:41;94176.78;;;13.19;100.00
39301;BME280;25019;42.626;23.380;2023-05-21T04:36:10;94172.53;;;13.18;100.00
39301;BME280;25019;42.626;23.380;2023-05-21T04:38:36;94242.53;;;13.81;100.00
39301;BME280;25019;42.626;23.380;2023-05-21T04:41:04;94245.19;;;13.91;100.00
39301;BME280;25019;42.626;23.380;2023-05-21T04:43:31;94215.28;;;13.89;100.00
39301;BME280;25019;42.626;23.380;2023-05-21T04:45:57;94250.09;;;14.24;100.00
39301;BME280;25019;42.626;23.380;2023-05-21T04:48:24;94246.25;;;14.46;100.00
39301;BME280;25019;42.626;23.380;2023-05-21T04:50:51;94254.44;;;14.65;100.00
39301;BME280;25019;42.626;23.380;2023-05-21T04:53:18;94255.41;;;14.79;100.00
39301;BME280;25019;42.626;23.380;2023-05-21T04:55:44;94243.34;;;14.87;100.00
39301;BME280;25019;42.626;23.380;2023-05-21T04:58:12;94252.50;;;15.10;100.00
39301;BME280;25019;42.626;23.380;2023-05-21T05:00:38;94233.00;;;15.10;100.00
39301;BME280;25019;42.626;23.380;2023-05-21T05:03:06;94194.31;;;15.02;100.00
39301;BME280;25019;42.626;23.380;2023-05-21T05:05:32;94244.34;;;15.55;100.00
39301;BME280;25019;42.626;23.380;2023-05-21T05:07:58;94243.19;;;15.67;100.00
39301;BME280;25019;42.626;23.380;2023-05-21T05:10:23;94203.94;;;15.57;100.00
39301;BME280;25019;42.626;23.380;2023-05-21T05:12:51;94193.25;;;15.76;100.00
39301;BME280;25019;42.626;23.380;2023-05-21T05:15:17;94230.97;;;16.28;100.00
39301;BME280;25019;42.626;23.380;2023-05-21T05:17:43;94233.88;;;16.70;100.00
39301;BME280;25019;42.626;23.380;2023-05-21T05:20:10;94176.50;;;16.52;100.00
39301;BME280;25019;42.626;23.380;2023-05-21T05:22:36;94246.19;;;17.10;100.00
39301;BME280;25019;42.626;23.380;2023-05-21T05:25:02;94223.53;;;17.16;100.00
39301;BME280;25019;42.626;23.380;2023-05-21T05:27:27;94249.69;;;17.57;100.00
39301;BME280;25019;42.626;23.380;2023-05-21T05:29:54;94197.41;;;17.69;99.60
39301;BME280;25019;42.626;23.380;2023-05-21T05:32:19;94251.22;;;18.33;96.45
39301;BME280;25019;42.626;23.380;2023-05-21T05:34:45;94154.69;;;17.95;93.33
39301;BME280;25019;42.626;23.380;2023-05-21T05:37:11;94230.47;;;18.48;92.82
39301;BME280;25019;42.626;23.380;2023-05-21T05:39:36;94187.63;;;18.15;89.45
39301;BME280;25019;42.626;23.380;2023-05-21T05:42:02;94234.88;;;18.44;89.29
39301;BME280;25019;42.626;23.380;2023-05-21T05:44:28;94239.63;;;18.61;89.55
39301;BME280;25019;42.626;23.380;2023-05-21T05:46:54;94245.28;;;18.73;90.24
39301;BME280;25019;42.626;23.380;2023-05-21T05:49:20;94227.09;;;18.79;88.93
39301;BME280;25019;42.626;23.380;2023-05-21T05:51:46;94237.19;;;19.10;89.74
39301;BME280;25019;42.626;23.380;2023-05-21T05:54:11;94196.44;;;19.02;87.48
39301;BME280;25019;42.626;23.380;2023-05-21T05:56:37;94241.09;;;19.49;88.50
39301;BME280;25019;42.626;23.380;2023-05-21T05:59:03;94237.94;;;19.56;85.57
39301;BME280;25019;42.626;23.380;2023-05-21T06:01:32;94233.94;;;19.76;84.65
39301;BME280;25019;42.626;23.380;2023-05-21T06:03:58;94242.00;;;20.16;81.68
39301;BME280;25019;42.626;23.380;2023-05-21T06:06:24;94225.16;;;20.77;72.78
39301;BME280;25019;42.626;23.380;2023-05-21T06:08:50;94241.66;;;21.37;66.92
39301;BME280;25019;42.626;23.380;2023-05-21T06:11:17;94232.41;;;21.47;65.65
39301;BME280;25019;42.626;23.380;2023-05-21T06:13:44;94232.03;;;21.75;63.88
39301;BME280;25019;42.626;23.380;2023-05-21T06:16:10;94226.38;;;21.42;63.71
39301;BME280;25019;42.626;23.380;2023-05-21T06:18:37;94228.25;;;21.50;63.85
39301;BME280;25019;42.626;23.380;2023-05-21T06:21:03;94229.41;;;21.31;63.48
39301;BME280;25019;42.626;23.380;2023-05-21T06:23:29;94222.13;;;21.23;63.04
39301;BME280;25019;42.626;23.380;2023-05-21T06:25:57;94135.63;;;20.31;63.66
39301;BME280;25019;42.626;23.380;2023-05-21T06:28:24;94154.16;;;20.15;64.90
39301;BME280;25019;42.626;23.380;2023-05-21T06:30:51;94115.53;;;19.71;66.07
39301;BME280;25019;42.626;23.380;2023-05-21T06:33:18;94183.34;;;19.73;65.49
39301;BME280;25019;42.626;23.380;2023-05-21T06:35:43;94166.69;;;19.62;67.75
39301;BME280;25019;42.626;23.380;2023-05-21T06:38:10;94218.81;;;19.98;68.62
39301;BME280;25019;42.626;23.380;2023-05-21T06:40:36;94214.72;;;20.09;67.01
39301;BME280;25019;42.626;23.380;2023-05-21T06:43:02;94219.03;;;20.19;67.91
39301;BME280;25019;42.626;23.380;2023-05-21T06:45:32;94199.69;;;20.17;68.09
39301;BME280;25019;42.626;23.380;2023-05-21T06:48:03;94217.16;;;20.37;66.97
39301;BME280;25019;42.626;23.380;2023-05-21T06:50:28;94201.16;;;20.49;66.84
39301;BME280;25019;42.626;23.380;2023-05-21T06:52:54;94154.81;;;20.30;64.35
39301;BME280;25019;42.626;23.380;2023-05-21T06:55:20;94210.91;;;20.77;65.74
39301;BME280;25019;42.626;23.380;2023-05-21T06:58:12;94215.34;;;20.82;63.35
39301;BME280;25019;42.626;23.380;2023-05-21T07:00:37;94146.09;;;20.42;64.01
39301;BME280;25019;42.626;23.380;2023-05-21T07:03:03;94193.41;;;20.65;62.94
39301;BME280;25019;42.626;23.380;2023-05-21T07:05:29;94204.22;;;20.83;63.70
39301;BME280;25019;42.626;23.380;2023-05-21T07:07:55;94198.19;;;20.77;64.20
39301;BME280;25019;42.626;23.380;2023-05-21T07:10:20;94198.47;;;20.76;62.20
39301;BME280;25019;42.626;23.380;2023-05-21T07:12:46;94207.81;;;20.34;63.02
39301;BME280;25019;42.626;23.380;2023-05-21T07:15:12;94215.38;;;20.15;61.99
39301;BME280;25019;42.626;23.380;2023-05-21T07:17:38;94201.34;;;19.95;61.28
39301;BME280;25019;42.626;23.380;2023-05-21T07:20:04;94207.94;;;20.20;61.08
39301;BME280;25019;42.626;23.380;2023-05-21T07:22:33;94210.66;;;20.38;62.65
39301;BME280;25019;42.626;23.380;2023-05-21T07:24:58;94198.94;;;20.43;61.97
39301;BME280;25019;42.626;23.380;2023-05-21T07:27:24;94206.56;;;20.41;60.28
39301;BME280;25019;42.626;23.380;2023-05-21T07:29:49;94207.19;;;20.55;60.80
39301;BME280;25019;42.626;23.380;2023-05-21T07:32:15;94180.34;;;20.32;62.26
39301;BME280;25019;42.626;23.380;2023-05-21T07:34:41;94150.53;;;20.46;62.09
39301;BME280;25019;42.626;23.380;2023-05-21T07:37:07;94208.16;;;21.03;61.28
39301;BME280;25019;42.626;23.380;2023-05-21T07:39:32;94159.44;;;20.64;57.89
39301;BME280;25019;42.626;23.380;2023-05-21T07:41:58;94206.75;;;20.88;60.54
39301;BME280;25019;42.626;23.380;2023-05-21T07:44:24;94217.69;;;20.74;60.45
39301;BME280;25019;42.626;23.380;2023-05-21T07:46:49;94226.88;;;20.47;60.39
39301;BME280;25019;42.626;23.380;2023-05-21T07:49:15;94222.84;;;20.18;60.99
39301;BME280;25019;42.626;23.380;2023-05-21T07:51:43;94150.06;;;19.69;62.15
39301;BME280;25019;42.626;23.380;2023-05-21T07:54:09;94216.88;;;19.89;63.88
39301;BME280;25019;42.626;23.380;2023-05-21T07:56:35;94207.38;;;19.92;64.38
39301;BME280;25019;42.626;23.380;2023-05-21T07:59:01;94206.44;;;19.88;63.02
39301;BME280;25019;42.626;23.380;2023-05-21T08:01:28;94138.19;;;19.70;63.77
39301;BME280;25019;42.626;23.380;2023-05-21T08:03:58;94205.44;;;20.42;61.59
39301;BME280;25019;42.626;23.380;2023-05-21T08:06:30;94208.16;;;20.68;56.46
39301;BME280;25019;42.626;23.380;2023-05-21T08:08:55;94198.66;;;20.79;57.38
39301;BME280;25019;42.626;23.380;2023-05-21T08:11:22;94207.22;;;21.17;56.61
39301;BME280;25019;42.626;23.380;2023-05-21T08:13:48;94212.75;;;21.29;56.16
39301;BME280;25019;42.626;23.380;2023-05-21T08:16:14;94210.03;;;21.29;51.47
39301;BME280;25019;42.626;23.380;2023-05-21T08:18:41;94199.28;;;21.03;49.76
39301;BME280;25019;42.626;23.380;2023-05-21T08:21:06;94202.47;;;20.87;49.88
39301;BME280;25019;42.626;23.380;2023-05-21T08:23:33;94201.50;;;20.83;49.38
39301;BME280;25019;42.626;23.380;2023-05-21T08:25:59;94204.19;;;20.74;50.11
39301;BME280;25019;42.626;23.380;2023-05-21T08:28:24;94197.81;;;20.44;49.59
39301;BME280;25019;42.626;23.380;2023-05-21T08:30:53;94197.97;;;20.39;49.67
39301;BME280;25019;42.626;23.380;2023-05-21T08:33:21;94193.34;;;20.39;51.08
39301;BME280;25019;42.626;23.380;2023-05-21T08:35:46;94156.03;;;19.97;49.73
39301;BME280;25019;42.626;23.380;2023-05-21T08:38:20;94193.25;;;20.62;50.14
39301;BME280;25019;42.626;23.380;2023-05-21T08:41:06;94212.47;;;20.95;50.90
39301;BME280;25019;42.626;23.380;2023-05-21T08:43:33;94214.03;;;21.05;50.47
39301;BME280;25019;42.626;23.380;2023-05-21T08:46:02;94188.44;;;21.20;50.72
39301;BME280;25019;42.626;23.380;2023-05-21T08:48:31;94208.06;;;21.56;50.63
39301;BME280;25019;42.626;23.380;2023-05-21T08:50:58;94143.84;;;21.05;51.34
39301;BME280;25019;42.626;23.380;2023-05-21T08:53:31;94209.44;;;21.15;51.86
39301;BME280;25019;42.626;23.380;2023-05-21T08:55:58;94196.09;;;20.92;52.06
39301;BME280;25019;42.626;23.380;2023-05-21T08:58:39;94146.41;;;20.66;51.40
39301;BME280;25019;42.626;23.380;2023-05-21T09:01:07;94202.28;;;21.10;53.13
39301;BME280;25019;42.626;23.380;2023-05-21T09:03:38;94191.88;;;21.47;52.76
39301;BME280;25019;42.626;23.380;2023-05-21T09:06:06;94185.97;;;21.72;52.35
39301;BME280;25019;42.626;23.380;2023-05-21T09:08:37;94173.66;;;21.83;51.30
39301;BME280;25019;42.626;23.380;2023-05-21T09:11:23;94202.97;;;22.02;51.29
39301;BME280;25019;42.626;23.380;2023-05-21T09:13:55;94197.63;;;22.23;49.93
39301;BME280;25019;42.626;23.380;2023-05-21T09:16:29;94195.06;;;22.27;50.77
39301;BME280;25019;42.626;23.380;2023-05-21T09:18:55;94213.69;;;21.90;47.33
39301;BME280;25019;42.626;23.380;2023-05-21T09:21:28;94220.72;;;21.82;45.55
39301;BME280;25019;42.626;23.380;2023-05-21T09:23:59;94205.38;;;21.47;45.49
39301;BME280;25019;42.626;23.380;2023-05-21T09:26:26;94156.56;;;21.05;45.40
39301;BME280;25019;42.626;23.380;2023-05-21T09:28:57;94175.09;;;21.24;44.46
39301;BME280;25019;42.626;23.380;2023-05-21T09:31:24;94124.44;;;21.21;43.54
39301;BME280;25019;42.626;23.380;2023-05-21T09:33:50;94200.31;;;21.93;43.84
39301;BME280;25019;42.626;23.380;2023-05-21T09:36:21;94183.28;;;22.02;42.91
39301;BME280;25019;42.626;23.380;2023-05-21T09:38:48;94188.00;;;22.05;43.40
39301;BME280;25019;42.626;23.380;2023-05-21T09:41:14;94128.41;;;21.71;42.69
39301;BME280;25019;42.626;23.380;2023-05-21T09:43:43;94194.94;;;22.23;43.17
39301;BME280;25019;42.626;23.380;2023-05-21T09:46:10;94137.69;;;21.91;43.59
39301;BME280;25019;42.626;23.380;2023-05-21T09:48:37;94186.25;;;22.09;43.51
39301;BME280;25019;42.626;23.380;2023-05-21T09:56:26;94173.19;;;21.81;41.93
39301;BME280;25019;42.626;23.380;2023-05-21T09:58:55;94082.72;;;21.09;42.96
39301;BME280;25019;42.626;23.380;2023-05-21T10:01:22;94185.53;;;21.91;41.74
39301;BME280;25019;42.626;23.380;2023-05-21T10:03:52;94175.34;;;21.96;42.50
39301;BME280;25019;42.626;23.380;2023-05-21T10:06:19;94121.75;;;21.68;43.07
39301;BME280;25019;42.626;23.380;2023-05-21T10:08:47;94184.53;;;22.04;43.16
39301;BME280;25019;42.626;23.380;2023-05-21T10:11:17;94184.75;;;21.90;41.06
39301;BME280;25019;42.626;23.380;2023-05-21T10:13:47;94169.75;;;21.63;40.25
39301;BME280;25019;42.626;23.380;2023-05-21T10:16:14;94182.16;;;21.64;41.25
39301;BME280;25019;42.626;23.380;2023-05-21T10:18:41;94173.09;;;21.68;40.08
39301;BME280;25019;42.626;23.380;2023-05-21T10:21:07;94167.22;;;21.58;40.54
39301;BME280;25019;42.626;23.380;2023-05-21T10:23:35;94112.25;;;21.15;40.25
39301;BME280;25019;42.626;23.380;2023-05-21T10:26:02;94165.81;;;21.51;41.44
39301;BME280;25019;42.626;23.380;2023-05-21T10:28:29;94170.88;;;21.53;41.41
39301;BME280;25019;42.626;23.380;2023-05-21T10:30:56;94173.75;;;21.48;42.23
39301;BME280;25019;42.626;23.380;2023-05-21T10:33:22;94169.22;;;21.31;41.58
39301;BME280;25019;42.626;23.380;2023-05-21T10:35:48;94169.31;;;21.43;42.35
39301;BME280;25019;42.626;23.380;2023-05-21T10:38:17;94162.75;;;21.70;41.75
39301;BME280;25019;42.626;23.380;2023-05-21T10:40:43;94161.94;;;21.70;42.39
39301;BME280;25019;42.626;23.380;2023-05-21T10:46:08;94158.72;;;21.85;42.72
39301;BME280;25019;42.626;23.380;2023-05-21T10:51:17;94117.06;;;21.39;41.68
39301;BME280;25019;42.626;23.380;2023-05-21T10:54:12;94159.50;;;21.38;43.17
39301;BME280;25019;42.626;23.380;2023-05-21T10:59:39;94157.19;;;20.75;45.56
39301;BME280;25019;42.626;23.380;2023-05-21T11:02:06;94098.97;;;20.30;45.36
39301;BME280;25019;42.626;23.380;2023-05-21T11:04:33;94147.69;;;20.60;45.62
39301;BME280;25019;42.626;23.380;2023-05-21T11:07:04;94158.31;;;20.57;45.83
39301;BME280;25019;42.626;23.380;2023-05-21T11:09:30;94144.03;;;20.47;45.37
39301;BME280;25019;42.626;23.380;2023-05-21T11:11:56;94137.53;;;20.57;46.20
39301;BME280;25019;42.626;23.380;2023-05-21T11:14:32;94151.19;;;21.05;46.04
39301;BME280;25019;42.626;23.380;2023-05-21T11:22:05;94080.97;;;21.82;43.39
39301;BME280;25019;42.626;23.380;2023-05-21T11:24:31;94096.34;;;21.91;43.51
39301;BME280;25019;42.626;23.380;2023-05-21T11:26:59;94033.66;;;21.07;43.51
39301;BME280;25019;42.626;23.380;2023-05-21T11:29:40;94124.78;;;21.58;43.04
39301;BME280;25019;42.626;23.380;2023-05-21T11:32:08;94065.44;;;20.93;43.94
39301;BME280;25019;42.626;23.380;2023-05-21T11:34:44;94132.25;;;21.14;45.27
39301;BME280;25019;42.626;23.380;2023-05-21T11:39:42;94130.38;;;20.61;46.07
39301;BME280;25019;42.626;23.380;2023-05-21T11:42:08;94124.06;;;20.40;46.04
39301;BME280;25019;42.626;23.380;2023-05-21T11:44:41;94121.66;;;20.29;46.71
39301;BME280;25019;42.626;23.380;2023-05-21T11:47:08;94124.03;;;20.22;47.82
39301;BME280;25019;42.626;23.380;2023-05-21T11:49:35;94061.03;;;19.74;47.25
39301;BME280;25019;42.626;23.380;2023-05-21T11:52:02;94124.69;;;20.19;47.03
39301;BME280;25019;42.626;23.380;2023-05-21T11:54:29;94129.28;;;20.18;47.96
39301;BME280;25019;42.626;23.380;2023-05-21T11:57:10;94123.72;;;20.06;47.52
39301;BME280;25019;42.626;23.380;2023-05-21T11:59:36;94112.41;;;19.95;48.25
39301;BME280;25019;42.626;23.380;2023-05-21T12:02:02;94112.88;;;19.88;48.38
39301;BME280;25019;42.626;23.380;2023-05-21T12:04:31;94111.59;;;19.86;48.29
39301;BME280;25019;42.626;23.380;2023-05-21T12:07:08;94117.63;;;19.83;48.76
39301;BME280;25019;42.626;23.380;2023-05-21T12:09:40;94120.59;;;19.72;48.54
39301;BME280;25019;42.626;23.380;2023-05-21T12:12:07;94113.63;;;19.71;49.70
39301;BME280;25019;42.626;23.380;2023-05-21T12:14:34;94113.13;;;19.69;49.73
39301;BME280;25019;42.626;23.380;2023-05-21T12:16:59;94058.09;;;19.35;49.53
39301;BME280;25019;42.626;23.380;2023-05-21T12:19:25;94106.47;;;19.58;49.67
39301;BME280;25019;42.626;23.380;2023-05-21T12:21:51;94004.56;;;18.93;50.55
39301;BME280;25019;42.626;23.380;2023-05-21T12:24:17;94084.84;;;19.40;50.86
39301;BME280;25019;42.626;23.380;2023-05-21T12:26:43;94108.94;;;19.45;51.40
39301;BME280;25019;42.626;23.380;2023-05-21T12:29:12;94116.22;;;19.36;52.87
39301;BME280;25019;42.626;23.380;2023-05-21T12:31:48;94022.09;;;18.59;54.25
39301;BME280;25019;42.626;23.380;2023-05-21T12:34:14;94105.63;;;19.08;55.83
39301;BME280;25019;42.626;23.380;2023-05-21T12:36:43;94114.63;;;19.04;56.99
39301;BME280;25019;42.626;23.380;2023-05-21T12:39:18;94097.91;;;18.93;57.45
39301;BME280;25019;42.626;23.380;2023-05-21T12:41:43;94038.72;;;18.61;58.04
39301;BME280;25019;42.626;23.380;2023-05-21T12:44:11;94094.53;;;19.10;58.04
39301;BME280;25019;42.626;23.380;2023-05-21T12:46:37;94097.16;;;19.24;57.29
39301;BME280;25019;42.626;23.380;2023-05-21T12:49:03;94100.06;;;19.36;57.77
39301;BME280;25019;42.626;23.380;2023-05-21T12:51:38;94100.72;;;19.51;57.86
39301;BME280;25019;42.626;23.380;2023-05-21T12:54:10;94097.91;;;19.56;58.21
39301;BME280;25019;42.626;23.380;2023-05-21T12:56:43;94094.13;;;19.66;57.88
39301;BME280;25019;42.626;23.380;2023-05-21T12:59:13;94095.72;;;19.75;57.79
39301;BME280;25019;42.626;23.380;2023-05-21T13:01:41;94086.22;;;19.78;57.86
39301;BME280;25019;42.626;23.380;2023-05-21T13:04:07;94095.16;;;19.96;58.04
39301;BME280;25019;42.626;23.380;2023-05-21T13:06:42;94088.50;;;20.11;56.95
39301;BME280;25019;42.626;23.380;2023-05-21T13:09:08;94013.63;;;19.73;56.42
39301;BME280;25019;42.626;23.380;2023-05-21T13:11:33;94086.47;;;20.34;55.79